Christoval, Texas
Current Conditions -  °F | °C
As of 7:51 PM on Saturday 22 Nov 2014 (Local Time) from KSJT Reporting Station
Clear Clear  
Wind Chill: 58°   Ceiling: Unl
Heat Index: 58°   Visibility: 10mi
Dew Point: 55°   Wind: 0mph
Humidity: 90%   Direction: NA
Pressure: 29.82"   Gusts: NA
Location:  31.19°N, 100.5°W
Report Text: KSJT 230151Z 00000KT 10SM CLR 14/13 A2982 RMK AO2 LTG DSNT SE AND S SLP088 T01440128
Loading
Personal Weather Stations






























Interactive Weather Map New forecast layout! Learn more

10-Day Weather Forecast

Advertisements
Track Severe Weather on mobile